createdAt,value
2017-08-14T00:01:26.931Z,15.90
2017-08-14T00:03:53.324Z,15.90
2017-08-14T00:06:19.704Z,15.80
2017-08-14T00:08:46.114Z,15.90
2017-08-14T00:11:12.497Z,16.00
2017-08-14T00:13:38.876Z,15.90
2017-08-14T00:16:06.039Z,15.90
2017-08-14T00:18:33.160Z,15.90
2017-08-14T00:20:59.503Z,15.90
2017-08-14T00:23:26.679Z,15.90
2017-08-14T00:25:53.779Z,15.90
2017-08-14T00:28:20.131Z,15.90
2017-08-14T00:30:46.549Z,15.80
2017-08-14T00:33:13.172Z,15.70
2017-08-14T00:35:39.576Z,15.80
2017-08-14T00:38:05.963Z,15.70
2017-08-14T00:40:32.371Z,15.90
2017-08-14T00:42:58.751Z,15.90
2017-08-14T00:45:25.900Z,15.90
2017-08-14T00:47:53.228Z,15.80
2017-08-14T00:50:19.596Z,15.80
2017-08-14T00:52:46.020Z,15.80
2017-08-14T00:55:13.171Z,15.80
2017-08-14T00:57:40.292Z,15.70
2017-08-14T01:00:06.704Z,15.70
2017-08-14T01:02:33.092Z,15.70
2017-08-14T01:04:59.509Z,15.70
2017-08-14T01:07:25.951Z,15.70
2017-08-14T01:09:53.071Z,15.70
2017-08-14T01:12:19.484Z,15.70
2017-08-14T01:14:45.852Z,15.50
2017-08-14T01:17:12.283Z,15.50
2017-08-14T01:19:38.736Z,15.50
2017-08-14T01:22:05.917Z,15.50
2017-08-14T01:24:32.380Z,15.50
2017-08-14T01:26:58.744Z,15.40
2017-08-14T01:29:25.831Z,15.50
2017-08-14T01:31:52.204Z,15.40
2017-08-14T01:34:19.370Z,15.20
2017-08-14T01:36:46.588Z,15.20
2017-08-14T01:39:12.972Z,15.20
2017-08-14T01:41:39.400Z,15.10
2017-08-14T01:44:05.769Z,15.10
2017-08-14T01:46:32.123Z,15.00
2017-08-14T01:48:58.504Z,15.00
2017-08-14T01:51:24.903Z,15.10
2017-08-14T01:53:52.071Z,15.10
2017-08-14T01:56:18.464Z,15.00
2017-08-14T01:58:44.876Z,15.20
2017-08-14T02:01:11.224Z,15.20
2017-08-14T02:03:38.232Z,15.10
2017-08-14T02:06:04.624Z,15.10
2017-08-14T02:08:31.075Z,15.00
2017-08-14T02:10:58.203Z,15.00
2017-08-14T02:13:24.562Z,15.00
2017-08-14T02:15:51.697Z,15.00
2017-08-14T02:18:18.112Z,15.00
2017-08-14T02:20:44.459Z,15.10
2017-08-14T02:23:10.886Z,15.20
2017-08-14T02:25:37.983Z,15.00
2017-08-14T02:28:04.376Z,15.00
2017-08-14T02:30:31.475Z,15.10
2017-08-14T02:32:57.828Z,15.10
2017-08-14T02:35:24.215Z,15.20
2017-08-14T02:37:50.586Z,15.20
2017-08-14T02:40:17.008Z,15.20
2017-08-14T02:42:43.455Z,15.20
2017-08-14T02:45:09.815Z,15.20
2017-08-14T02:47:36.177Z,15.30
2017-08-14T02:50:02.560Z,15.30
2017-08-14T02:52:28.928Z,15.30
2017-08-14T02:54:55.353Z,15.30
2017-08-14T02:57:21.699Z,15.30
2017-08-14T02:59:48.087Z,15.10
2017-08-14T03:02:14.474Z,15.10
2017-08-14T03:04:40.829Z,15.20
2017-08-14T03:07:07.367Z,15.00
2017-08-14T03:09:34.547Z,14.70
2017-08-14T03:12:01.683Z,14.70
2017-08-14T03:14:28.143Z,14.70
2017-08-14T03:16:54.564Z,14.50
2017-08-14T03:19:20.916Z,14.50
2017-08-14T03:21:47.268Z,14.70
2017-08-14T03:24:13.652Z,14.60
2017-08-14T03:26:40.048Z,14.70
2017-08-14T03:29:06.464Z,14.70
2017-08-14T03:31:32.915Z,14.70
2017-08-14T03:33:59.262Z,14.80
2017-08-14T03:36:26.480Z,14.80
2017-08-14T03:38:52.874Z,14.80
2017-08-14T03:41:19.980Z,14.70
2017-08-14T03:43:46.375Z,14.70
2017-08-14T03:46:12.775Z,14.70
2017-08-14T03:48:39.121Z,14.30
2017-08-14T03:51:06.327Z,14.50
2017-08-14T03:53:32.693Z,14.50
2017-08-14T03:55:59.843Z,14.70
2017-08-14T03:58:26.936Z,14.60
2017-08-14T04:00:53.291Z,14.60
2017-08-14T04:03:19.717Z,14.50
2017-08-14T04:05:46.067Z,14.60
2017-08-14T04:08:12.432Z,14.70
2017-08-14T04:10:38.859Z,14.80
2017-08-14T04:13:05.935Z,14.90
2017-08-14T04:15:32.320Z,14.80
2017-08-14T04:17:59.465Z,14.90
2017-08-14T04:20:26.620Z,14.90
2017-08-14T04:22:53.016Z,14.80
2017-08-14T04:25:19.429Z,14.80
2017-08-14T04:27:45.809Z,14.80
2017-08-14T04:30:12.928Z,14.70
2017-08-14T04:32:39.669Z,14.60
2017-08-14T04:35:06.024Z,14.80
2017-08-14T04:37:32.439Z,14.80
2017-08-14T04:39:58.847Z,14.80
2017-08-14T04:42:25.276Z,14.80
2017-08-14T04:44:51.672Z,14.90
2017-08-14T04:47:18.821Z,14.90
2017-08-14T04:49:45.951Z,15.00
2017-08-14T04:52:13.047Z,14.90
2017-08-14T04:54:39.391Z,14.90
2017-08-14T04:57:05.809Z,14.90
2017-08-14T04:59:32.182Z,15.00
2017-08-14T05:01:58.595Z,15.10
2017-08-14T05:04:24.975Z,15.10
2017-08-14T05:06:51.367Z,15.20
2017-08-14T05:09:17.737Z,15.20
2017-08-14T05:11:44.151Z,15.20
2017-08-14T05:14:10.734Z,15.20
2017-08-14T05:16:37.167Z,15.30
2017-08-14T05:19:03.589Z,15.30
2017-08-14T05:21:29.951Z,15.30
2017-08-14T05:23:56.337Z,15.30
2017-08-14T05:26:22.744Z,15.30
2017-08-14T05:28:49.096Z,15.40
2017-08-14T05:31:16.224Z,15.60
2017-08-14T05:33:42.687Z,15.60
2017-08-14T05:36:09.075Z,15.60
2017-08-14T05:38:35.468Z,15.80
2017-08-14T05:41:01.844Z,15.70
2017-08-14T05:43:28.196Z,15.90
2017-08-14T05:45:54.592Z,15.90
2017-08-14T05:48:21.008Z,16.00
2017-08-14T05:50:47.446Z,15.90
2017-08-14T05:53:13.831Z,16.00
2017-08-14T05:55:40.244Z,16.10
2017-08-14T05:58:06.636Z,16.20
2017-08-14T06:00:33.066Z,16.30
2017-08-14T06:02:59.516Z,16.50
2017-08-14T06:05:25.887Z,16.50
2017-08-14T06:07:52.984Z,17.00
2017-08-14T06:10:19.359Z,17.00
2017-08-14T06:12:45.745Z,16.90
2017-08-14T06:15:12.188Z,17.10
2017-08-14T06:17:39.327Z,17.30
2017-08-14T06:20:05.789Z,17.30
2017-08-14T06:22:32.162Z,17.50
2017-08-14T06:24:58.524Z,17.50
2017-08-14T06:27:24.952Z,17.50
2017-08-14T06:29:51.419Z,17.70
2017-08-14T06:32:17.800Z,17.60
2017-08-14T06:34:44.172Z,17.80
2017-08-14T06:37:10.555Z,17.90
2017-08-14T06:39:36.952Z,18.00
2017-08-14T06:42:03.375Z,18.10
2017-08-14T06:44:29.762Z,18.20
2017-08-14T06:46:56.144Z,18.30
2017-08-14T06:49:22.504Z,18.50
2017-08-14T06:51:49.636Z,18.90
2017-08-14T06:54:16.728Z,19.40
2017-08-14T06:56:43.110Z,19.30
2017-08-14T06:59:09.469Z,19.80
2017-08-14T07:01:35.831Z,20.20
2017-08-14T07:04:02.272Z,20.50
2017-08-14T07:06:28.636Z,21.00
2017-08-14T07:08:55.031Z,21.40
2017-08-14T07:11:21.420Z,21.50
2017-08-14T07:13:47.760Z,21.90
2017-08-14T07:16:14.209Z,22.20
2017-08-14T07:18:40.565Z,22.70
2017-08-14T07:21:06.939Z,23.10
2017-08-14T07:23:34.108Z,23.60
2017-08-14T07:26:00.475Z,23.60
2017-08-14T07:28:26.835Z,23.90
2017-08-14T07:30:53.972Z,24.20
2017-08-14T07:33:20.359Z,24.20
2017-08-14T07:35:46.768Z,24.60
2017-08-14T07:38:13.907Z,25.30
2017-08-14T07:40:41.040Z,25.40
2017-08-14T07:43:07.627Z,25.40
2017-08-14T07:45:34.027Z,25.70
2017-08-14T07:48:01.124Z,26.00
2017-08-14T07:50:27.499Z,26.00
2017-08-14T07:52:53.861Z,26.20
2017-08-14T07:55:20.245Z,26.40
2017-08-14T07:57:46.643Z,26.90
2017-08-14T08:00:13.098Z,27.40
2017-08-14T08:02:39.452Z,27.70
2017-08-14T08:05:05.839Z,27.70
2017-08-14T08:07:32.224Z,28.00
2017-08-14T08:09:58.615Z,28.40
2017-08-14T08:12:24.995Z,28.90
2017-08-14T08:14:52.115Z,29.60
2017-08-14T08:17:18.502Z,29.60
2017-08-14T08:19:44.874Z,29.70
2017-08-14T08:22:11.281Z,29.60
2017-08-14T08:24:37.638Z,29.40
2017-08-14T08:27:03.994Z,28.80
2017-08-14T08:29:30.403Z,28.60
2017-08-14T08:31:57.551Z,29.50
2017-08-14T08:34:24.715Z,30.20
2017-08-14T08:36:51.107Z,30.20
2017-08-14T08:39:17.509Z,30.80
2017-08-14T08:41:43.868Z,31.30
2017-08-14T08:44:10.263Z,31.50
2017-08-14T08:46:37.370Z,31.90
2017-08-14T08:49:03.776Z,31.90
2017-08-14T08:51:30.178Z,32.20
2017-08-14T08:53:57.285Z,32.40
2017-08-14T08:56:23.643Z,32.30
2017-08-14T08:58:50.775Z,32.60
2017-08-14T09:01:17.216Z,32.60
2017-08-14T09:03:43.603Z,32.70
2017-08-14T09:06:10.069Z,32.60
2017-08-14T09:08:36.492Z,32.00
2017-08-14T09:11:02.875Z,31.80
2017-08-14T09:13:29.239Z,32.30
2017-08-14T09:15:55.635Z,33.00
2017-08-14T09:18:22.782Z,33.80
2017-08-14T09:20:49.151Z,33.70
2017-08-14T09:23:15.561Z,33.90
2017-08-14T09:25:41.971Z,34.40
2017-08-14T09:28:08.364Z,34.30
2017-08-14T09:30:34.743Z,34.50
2017-08-14T09:33:01.150Z,34.70
2017-08-14T09:35:28.286Z,35.00
2017-08-14T09:37:54.704Z,34.90
2017-08-14T09:40:21.058Z,35.30
2017-08-14T09:42:47.428Z,35.90
2017-08-14T09:45:13.844Z,36.20
2017-08-14T09:47:40.196Z,36.30
2017-08-14T09:50:06.564Z,36.30
2017-08-14T09:52:32.984Z,36.40
2017-08-14T09:54:59.337Z,35.50
2017-08-14T09:57:25.683Z,35.70
2017-08-14T09:59:52.824Z,36.10
2017-08-14T10:02:19.205Z,36.00
2017-08-14T10:04:45.588Z,36.20
2017-08-14T10:07:12.752Z,36.00
2017-08-14T10:09:39.859Z,36.30
2017-08-14T10:12:06.234Z,36.40
2017-08-14T10:14:33.417Z,36.50
2017-08-14T10:16:59.776Z,36.50
2017-08-14T10:19:26.128Z,36.10
2017-08-14T10:21:53.283Z,35.40
2017-08-14T10:24:19.661Z,35.40
2017-08-14T10:26:46.018Z,35.70
2017-08-14T10:29:12.420Z,36.30
2017-08-14T10:31:38.887Z,36.40
2017-08-14T10:34:05.252Z,36.50
2017-08-14T10:36:31.612Z,36.80
2017-08-14T10:38:58.285Z,36.40
2017-08-14T10:41:24.629Z,36.30
2017-08-14T10:43:50.984Z,36.00
2017-08-14T10:46:18.117Z,34.40
2017-08-14T10:48:44.476Z,34.40
2017-08-14T10:51:10.861Z,35.20
2017-08-14T10:53:37.268Z,35.80
2017-08-14T10:56:03.669Z,36.10
2017-08-14T10:58:30.104Z,36.40
2017-08-14T11:00:56.484Z,36.10
2017-08-14T11:03:22.908Z,36.20
2017-08-14T11:05:49.312Z,36.20
2017-08-14T11:08:15.712Z,35.70
2017-08-14T11:10:42.820Z,34.80
2017-08-14T11:13:09.212Z,34.80
2017-08-14T11:15:35.653Z,34.10
2017-08-14T11:18:02.057Z,33.80
2017-08-14T11:20:29.192Z,33.40
2017-08-14T11:22:56.335Z,33.20
2017-08-14T11:25:22.712Z,33.20
2017-08-14T11:27:49.101Z,32.80
2017-08-14T11:30:15.466Z,31.00
2017-08-14T11:32:41.898Z,30.90
2017-08-14T11:35:08.272Z,31.30
2017-08-14T11:37:34.708Z,31.60
2017-08-14T11:40:01.096Z,31.80
2017-08-14T11:42:27.575Z,31.90
2017-08-14T11:44:54.007Z,31.60
2017-08-14T11:47:20.432Z,31.40
2017-08-14T11:49:46.807Z,31.60
2017-08-14T11:52:13.912Z,31.80
2017-08-14T11:54:40.357Z,31.80
2017-08-14T11:57:06.720Z,31.90
2017-08-14T11:59:33.205Z,31.90
2017-08-14T12:01:59.664Z,31.80
2017-08-14T12:04:26.041Z,31.60
2017-08-14T12:06:52.418Z,31.60
2017-08-14T12:09:18.810Z,31.20
2017-08-14T12:11:45.184Z,31.10
2017-08-14T12:14:11.561Z,31.10
2017-08-14T12:16:38.028Z,30.70
2017-08-14T12:19:04.528Z,30.30
2017-08-14T12:21:30.956Z,30.30
2017-08-14T12:23:57.328Z,30.40
2017-08-14T12:26:23.721Z,30.30
2017-08-14T12:28:50.084Z,30.20
2017-08-14T12:31:16.461Z,30.00
2017-08-14T12:33:43.581Z,29.70
2017-08-14T12:36:09.984Z,29.60
2017-08-14T12:38:36.418Z,29.70
2017-08-14T12:41:02.822Z,29.80
2017-08-14T12:43:29.196Z,29.70
2017-08-14T12:45:55.553Z,29.40
2017-08-14T12:48:21.947Z,29.00
2017-08-14T12:50:48.336Z,29.00
2017-08-14T12:53:14.675Z,28.80
2017-08-14T12:55:41.076Z,28.70
2017-08-14T12:58:07.431Z,28.80
2017-08-14T13:00:33.819Z,28.70
2017-08-14T13:03:00.252Z,28.80
2017-08-14T13:05:26.623Z,28.50
2017-08-14T13:07:53.731Z,28.20
2017-08-14T13:10:20.220Z,28.20
2017-08-14T13:12:46.656Z,28.30
2017-08-14T13:15:13.025Z,28.20
2017-08-14T13:17:39.659Z,28.40
2017-08-14T13:20:06.016Z,28.30
2017-08-14T13:22:32.388Z,28.20
2017-08-14T13:24:59.574Z,27.70
2017-08-14T13:27:26.044Z,27.70
2017-08-14T13:29:52.478Z,27.30
2017-08-14T13:32:18.828Z,27.40
2017-08-14T13:34:45.395Z,27.70
2017-08-14T13:37:11.769Z,27.90
2017-08-14T13:39:38.145Z,28.00
2017-08-14T13:42:04.544Z,28.10
2017-08-14T13:44:30.948Z,28.10
2017-08-14T13:46:57.316Z,28.10
2017-08-14T13:49:24.441Z,28.10
2017-08-14T13:51:51.566Z,27.90
2017-08-14T13:54:18.017Z,27.80
2017-08-14T13:56:44.397Z,27.80
2017-08-14T13:59:10.796Z,27.60
2017-08-14T14:01:37.197Z,27.30
2017-08-14T14:04:03.552Z,27.00
2017-08-14T14:06:29.957Z,26.50
2017-08-14T14:08:56.327Z,26.40
2017-08-14T14:11:22.721Z,26.60
2017-08-14T14:13:49.088Z,26.80
2017-08-14T14:16:15.573Z,26.80
2017-08-14T14:18:41.915Z,26.90
2017-08-14T14:21:08.272Z,27.00
2017-08-14T14:23:34.698Z,27.10
2017-08-14T14:26:01.096Z,27.10
2017-08-14T14:28:27.458Z,27.20
2017-08-14T14:30:53.845Z,27.30
2017-08-14T14:33:20.260Z,27.30
2017-08-14T14:35:47.419Z,27.40
2017-08-14T14:38:13.782Z,27.40
2017-08-14T14:40:40.167Z,27.20
2017-08-14T14:43:06.548Z,27.00
2017-08-14T14:45:32.906Z,27.00
2017-08-14T14:47:59.276Z,27.10
2017-08-14T14:50:25.684Z,27.10
2017-08-14T14:52:52.069Z,27.00
2017-08-14T14:55:18.432Z,27.00
2017-08-14T14:57:44.821Z,27.00
2017-08-14T15:00:11.184Z,27.00
2017-08-14T15:02:37.575Z,27.00
2017-08-14T15:05:03.981Z,27.00
2017-08-14T15:07:31.146Z,27.00
2017-08-14T15:09:57.511Z,27.00
2017-08-14T15:12:23.896Z,26.90
2017-08-14T15:14:50.987Z,26.80
2017-08-14T15:17:17.333Z,26.90
2017-08-14T15:19:43.727Z,26.50
2017-08-14T15:22:10.137Z,26.30
2017-08-14T15:24:36.480Z,26.50
2017-08-14T15:27:02.864Z,26.60
2017-08-14T15:29:29.277Z,26.70
2017-08-14T15:31:55.628Z,26.40
2017-08-14T15:34:21.996Z,26.50
2017-08-14T15:36:48.397Z,26.50
2017-08-14T15:39:15.528Z,26.80
2017-08-14T15:41:41.909Z,26.70
2017-08-14T15:44:08.295Z,26.70
2017-08-14T15:46:34.683Z,26.80
2017-08-14T15:49:01.028Z,26.90
2017-08-14T15:51:27.410Z,27.00
2017-08-14T15:53:53.820Z,26.90
2017-08-14T15:56:20.172Z,27.00
2017-08-14T15:58:46.552Z,26.90
2017-08-14T16:01:12.974Z,26.80
2017-08-14T16:03:39.349Z,26.90
2017-08-14T16:06:05.787Z,26.80
2017-08-14T16:08:32.156Z,26.90
2017-08-14T16:10:58.528Z,26.90
2017-08-14T16:13:25.287Z,26.80
2017-08-14T16:15:51.656Z,26.80
2017-08-14T16:18:18.071Z,26.60
2017-08-14T16:20:44.424Z,26.60
2017-08-14T16:23:11.580Z,26.60
2017-08-14T16:25:37.976Z,26.60
2017-08-14T16:28:04.343Z,26.50
2017-08-14T16:30:30.804Z,26.50
2017-08-14T16:32:57.217Z,26.50
2017-08-14T16:35:23.583Z,26.40
2017-08-14T16:37:49.983Z,26.40
2017-08-14T16:40:16.388Z,26.50
2017-08-14T16:42:42.861Z,26.40
2017-08-14T16:45:09.253Z,26.30
2017-08-14T16:47:35.605Z,26.30
2017-08-14T16:50:02.031Z,26.30
2017-08-14T16:52:28.417Z,26.30
2017-08-14T16:54:54.876Z,26.30
2017-08-14T16:57:21.316Z,26.30
2017-08-14T16:59:48.424Z,26.20
2017-08-14T17:02:14.822Z,26.10
2017-08-14T17:04:41.170Z,26.20
2017-08-14T17:07:07.567Z,26.20
2017-08-14T17:09:33.958Z,26.20
2017-08-14T17:12:00.355Z,26.20
2017-08-14T17:14:26.730Z,26.10
2017-08-14T17:16:53.128Z,26.10
2017-08-14T17:19:19.492Z,26.10
2017-08-14T17:21:45.887Z,26.10
2017-08-14T17:24:12.370Z,26.10
2017-08-14T17:26:39.516Z,25.90
2017-08-14T17:29:06.645Z,25.80
2017-08-14T17:31:33.025Z,25.80
2017-08-14T17:33:59.437Z,25.90
2017-08-14T17:36:26.531Z,25.80
2017-08-14T17:38:52.884Z,25.70
2017-08-14T17:41:19.379Z,25.70
2017-08-14T17:43:45.732Z,25.60
2017-08-14T17:46:12.097Z,25.60
2017-08-14T17:48:38.548Z,25.60
2017-08-14T17:51:05.684Z,25.50
2017-08-14T17:53:32.204Z,25.40
2017-08-14T17:55:58.650Z,25.40
2017-08-14T17:58:25.029Z,25.40
2017-08-14T18:00:51.488Z,25.40
2017-08-14T18:03:17.907Z,25.40
2017-08-14T18:05:44.284Z,25.40
2017-08-14T18:08:10.631Z,25.40
2017-08-14T18:10:37.045Z,25.30
2017-08-14T18:13:04.153Z,25.20
2017-08-14T18:15:30.520Z,25.20
2017-08-14T18:17:56.892Z,25.20
2017-08-14T18:20:23.280Z,25.10
2017-08-14T18:22:50.449Z,24.80
2017-08-14T18:25:17.660Z,24.70
2017-08-14T18:27:44.042Z,24.70
2017-08-14T18:30:10.461Z,24.60
2017-08-14T18:32:36.858Z,24.70
2017-08-14T18:35:03.232Z,24.60
2017-08-14T18:37:30.443Z,23.70
2017-08-14T18:39:56.849Z,23.60
2017-08-14T18:42:23.317Z,23.10
2017-08-14T18:44:49.835Z,22.70
2017-08-14T18:47:16.390Z,23.00
2017-08-14T18:49:42.821Z,23.10
2017-08-14T18:52:09.202Z,23.00
2017-08-14T18:54:35.612Z,23.10
2017-08-14T18:57:01.996Z,23.10
2017-08-14T18:59:28.411Z,22.90
2017-08-14T19:01:54.822Z,22.40
2017-08-14T19:04:21.280Z,22.50
2017-08-14T19:06:47.669Z,22.40
2017-08-14T19:09:15.805Z,22.40
2017-08-14T19:11:40.641Z,22.50
2017-08-14T19:14:07.017Z,22.30
2017-08-14T19:16:33.412Z,21.90
2017-08-14T19:18:59.819Z,21.90
2017-08-14T19:21:27.841Z,21.30
2017-08-14T19:23:54.242Z,21.20
2017-08-14T19:26:20.724Z,20.90
2017-08-14T19:28:47.085Z,20.50
2017-08-14T19:31:14.268Z,20.60
2017-08-14T19:33:40.721Z,20.60
2017-08-14T19:36:07.145Z,20.50
2017-08-14T19:38:34.452Z,20.30
2017-08-14T19:41:01.596Z,20.60
2017-08-14T19:43:28.052Z,20.60
2017-08-14T19:45:55.190Z,20.60
2017-08-14T19:48:22.318Z,20.40
2017-08-14T19:50:49.494Z,20.30
2017-08-14T19:53:16.627Z,20.10
2017-08-14T19:55:43.107Z,20.10
2017-08-14T19:58:09.503Z,19.90
2017-08-14T20:00:36.893Z,19.70
2017-08-14T20:03:03.344Z,19.70
2017-08-14T20:05:29.730Z,19.60
2017-08-14T20:07:56.128Z,19.40
2017-08-14T20:10:22.566Z,19.20
2017-08-14T20:12:49.734Z,19.00
2017-08-14T20:15:16.879Z,19.00
2017-08-14T20:17:43.256Z,19.00
2017-08-14T20:20:09.704Z,19.00
2017-08-14T20:22:36.101Z,19.00
2017-08-14T20:25:02.524Z,19.00
2017-08-14T20:27:28.961Z,18.90
2017-08-14T20:29:56.120Z,18.80
2017-08-14T20:32:22.528Z,18.80
2017-08-14T20:34:49.657Z,18.90
2017-08-14T20:37:16.035Z,18.90
2017-08-14T20:39:42.493Z,18.90
2017-08-14T20:42:08.877Z,18.80
2017-08-14T20:44:35.251Z,18.80
2017-08-14T20:47:01.636Z,18.70
2017-08-14T20:49:28.073Z,18.90
2017-08-14T20:51:54.586Z,18.70
2017-08-14T20:54:20.944Z,18.70
2017-08-14T20:56:47.359Z,18.70
2017-08-14T20:59:14.495Z,18.90
2017-08-14T21:01:40.972Z,18.90
2017-08-14T21:04:07.397Z,18.80
2017-08-14T21:06:33.852Z,18.70
2017-08-14T21:09:00.262Z,18.70
2017-08-14T21:11:27.404Z,18.80
2017-08-14T21:13:54.541Z,18.70
2017-08-14T21:16:21.672Z,18.70
2017-08-14T21:18:48.088Z,18.70
2017-08-14T21:21:14.464Z,18.80
2017-08-14T21:23:40.856Z,18.80
2017-08-14T21:26:07.264Z,18.70
2017-08-14T21:28:33.624Z,18.60
2017-08-14T21:31:00.000Z,18.20
2017-08-14T21:33:26.416Z,18.20
2017-08-14T21:35:52.793Z,18.20
2017-08-14T21:38:19.195Z,18.30
2017-08-14T21:40:45.552Z,18.20
2017-08-14T21:43:12.016Z,18.00
2017-08-14T21:45:38.441Z,18.00
2017-08-14T21:48:04.839Z,18.00
2017-08-14T21:50:31.272Z,18.10
2017-08-14T21:52:57.622Z,18.30
2017-08-14T21:55:24.003Z,18.40
2017-08-14T21:57:50.443Z,18.50
2017-08-14T22:00:16.859Z,18.60
2017-08-14T22:02:43.244Z,18.50
2017-08-14T22:05:09.635Z,18.50
2017-08-14T22:07:36.769Z,18.60
2017-08-14T22:10:03.893Z,18.70
2017-08-14T22:12:30.309Z,18.60
2017-08-14T22:14:56.680Z,18.70
2017-08-14T22:17:23.052Z,18.60
2017-08-14T22:19:49.448Z,18.50
2017-08-14T22:22:15.812Z,18.60
2017-08-14T22:24:42.221Z,18.40
2017-08-14T22:27:08.651Z,18.40
2017-08-14T22:29:35.012Z,18.40
2017-08-14T22:32:01.396Z,18.40
2017-08-14T22:34:27.772Z,18.40
2017-08-14T22:36:54.168Z,18.40
2017-08-14T22:39:21.381Z,18.30
2017-08-14T22:41:47.798Z,18.30
2017-08-14T22:44:14.192Z,18.10
2017-08-14T22:46:40.723Z,18.10
2017-08-14T22:49:07.842Z,18.20
2017-08-14T22:51:34.236Z,18.10
2017-08-14T22:54:00.680Z,18.30
2017-08-14T22:56:27.233Z,18.30
2017-08-14T22:58:53.649Z,18.30
2017-08-14T23:01:20.034Z,18.40
2017-08-14T23:03:47.283Z,18.50
2017-08-14T23:06:13.740Z,18.50
2017-08-14T23:08:40.131Z,18.40
2017-08-14T23:11:06.515Z,18.50
2017-08-14T23:13:32.899Z,18.40
2017-08-14T23:15:59.260Z,18.40
2017-08-14T23:18:25.656Z,18.20
2017-08-14T23:20:52.053Z,18.20
2017-08-14T23:23:18.408Z,18.10
2017-08-14T23:25:44.812Z,18.00
2017-08-14T23:28:11.204Z,17.90
2017-08-14T23:30:38.328Z,17.80
2017-08-14T23:33:04.696Z,17.80
2017-08-14T23:35:31.062Z,17.90
2017-08-14T23:37:57.476Z,17.90
2017-08-14T23:40:23.880Z,18.00
2017-08-14T23:42:51.070Z,17.90
2017-08-14T23:45:17.424Z,17.90
2017-08-14T23:47:43.827Z,17.70
2017-08-14T23:50:10.190Z,17.60
2017-08-14T23:52:36.608Z,17.60
2017-08-14T23:55:03.017Z,17.80
2017-08-14T23:57:29.389Z,17.80
2017-08-14T23:59:55.787Z,17.90
